nws-alerts: Checking more than four warning/county codes can delay the loading of your pages. You should use a cron job to get the data.
EllijayWeather Station Historical Data
Daily Summary for November 19, 2018 Units:  English    Metric   Both
Daily Weekly Monthly Yearly Custom
  High: Low: Average:
Temperature: 63.5 °F 35.2 °F 48.5 °F
Dew Point: 51.8 °F 20.3 °F 33.7 °F
Humidity: 75% 44% 57%
Wind Speed: 2.9mph 0.0mph 0.1mph
Wind Gust: 6.0mph - -
Wind- - SSW
Pressure: 30.27 in 30.11 in -
Precipitation: 0.03 in    
Historical Graphs
 
 
Tabular Data for November 19, 2018
Time Temperature Dew Point Pressure Wind Wind Speed Wind Gust Humidity Rainfall Rate (Hourly) solar
00:04 38.7 °F 24.3 °F 30.27 in Calm     56% 0.00 in meteobridge W/m2
00:09 38.5 °F 24.1 °F 30.26 in Calm     56% 0.00 in meteobridge W/m2
00:14 38.3 °F 23.9 °F 30.26 in Calm     56% 0.00 in meteobridge W/m2
00:19 38.1 °F 23.9 °F 30.26 in Calm     56% 0.00 in meteobridge W/m2
00:24 38.1 °F 23.9 °F 30.26 in Calm     56% 0.00 in meteobridge W/m2
00:29 37.9 °F 23.7 °F 30.26 in Calm     56% 0.00 in meteobridge W/m2
00:34 37.9 °F 23.7 °F 30.26 in Calm     56% 0.00 in meteobridge W/m2
00:39 37.8 °F 23.5 °F 30.26 in Calm     56% 0.00 in meteobridge W/m2
00:44 37.6 °F 23.4 °F 30.26 in Calm     56% 0.00 in meteobridge W/m2
00:49 37.6 °F 23.7 °F 30.26 in Calm     57% 0.00 in meteobridge W/m2
00:54 37.2 °F 23.4 °F 30.26 in Calm     57% 0.00 in meteobridge W/m2
00:59 37.2 °F 23.4 °F 30.26 in Calm     57% 0.00 in meteobridge W/m2
01:04 37.0 °F 22.8 °F 30.25 in Calm     56% 0.00 in meteobridge W/m2
01:09 37.0 °F 22.8 °F 30.25 in Calm     56% 0.00 in meteobridge W/m2
01:14 36.9 °F 22.6 °F 30.25 in Calm     56% 0.00 in meteobridge W/m2
01:19 36.9 °F 22.6 °F 30.25 in Calm     56% 0.00 in meteobridge W/m2
01:24 36.9 °F 22.6 °F 30.24 in Calm     56% 0.00 in meteobridge W/m2
01:29 36.9 °F 22.6 °F 30.24 in Calm     56% 0.00 in meteobridge W/m2
01:34 36.9 °F 22.6 °F 30.24 in Calm     56% 0.00 in meteobridge W/m2
01:39 36.9 °F 22.6 °F 30.24 in Calm     56% 0.00 in meteobridge W/m2
01:44 36.9 °F 22.6 °F 30.24 in Calm     56% 0.00 in meteobridge W/m2
01:49 36.9 °F 22.6 °F 30.24 in Calm     56% 0.00 in meteobridge W/m2
01:54 36.7 °F 22.5 °F 30.24 in Calm     56% 0.00 in meteobridge W/m2
01:59 36.7 °F 22.5 °F 30.25 in Calm     56% 0.00 in meteobridge W/m2
02:04 36.7 °F 22.5 °F 30.24 in Calm     56% 0.00 in meteobridge W/m2
02:09 36.5 °F 22.3 °F 30.24 in Calm     56% 0.00 in meteobridge W/m2
02:14 36.3 °F 22.1 °F 30.24 in Calm     56% 0.00 in meteobridge W/m2
02:19 36.3 °F 22.1 °F 30.24 in Calm     56% 0.00 in meteobridge W/m2
02:24 36.3 °F 22.1 °F 30.24 in Calm     56% 0.00 in meteobridge W/m2
02:29 36.1 °F 21.9 °F 30.24 in Calm     56% 0.00 in meteobridge W/m2
02:34 36.1 °F 21.9 °F 30.25 in Calm     56% 0.00 in meteobridge W/m2
02:39 36.0 °F 21.7 °F 30.24 in Calm     56% 0.00 in meteobridge W/m2
02:44 36.0 °F 21.7 °F 30.24 in Calm     56% 0.00 in meteobridge W/m2
02:49 35.8 °F 21.6 °F 30.24 in Calm     56% 0.00 in meteobridge W/m2
02:54 35.8 °F 21.6 °F 30.24 in Calm     56% 0.00 in meteobridge W/m2
02:59 35.8 °F 21.6 °F 30.24 in Calm     56% 0.00 in meteobridge W/m2
03:03 35.6 °F 21.4 °F 30.24 in Calm     56% 0.00 in meteobridge W/m2
03:08 35.6 °F 21.4 °F 30.24 in Calm     56% 0.00 in meteobridge W/m2
03:14 35.6 °F 21.4 °F 30.24 in Calm     56% 0.00 in meteobridge W/m2
03:19 35.6 °F 21.4 °F 30.24 in Calm     56% 0.00 in meteobridge W/m2
03:24 35.6 °F 21.4 °F 30.24 in Calm     56% 0.00 in meteobridge W/m2
03:29 35.8 °F 21.6 °F 30.24 in Calm     56% 0.00 in meteobridge W/m2
03:34 35.8 °F 21.6 °F 30.24 in Calm     56% 0.00 in meteobridge W/m2
03:39 35.6 °F 21.0 °F 30.24 in Calm     55% 0.00 in meteobridge W/m2
03:43 35.8 °F 21.2 °F 30.24 in Calm     55% 0.00 in meteobridge W/m2
03:49 35.6 °F 21.0 °F 30.24 in Calm     55% 0.00 in meteobridge W/m2
03:54 35.6 °F 21.0 °F 30.24 in Calm     55% 0.00 in meteobridge W/m2
03:59 35.6 °F 21.0 °F 30.24 in Calm     55% 0.00 in meteobridge W/m2
04:04 35.6 °F 21.0 °F 30.24 in Calm     55% 0.00 in meteobridge W/m2
04:09 35.6 °F 21.0 °F 30.24 in Calm     55% 0.00 in meteobridge W/m2
04:14 35.6 °F 21.0 °F 30.24 in Calm     55% 0.00 in meteobridge W/m2
04:19 35.6 °F 21.0 °F 30.23 in Calm     55% 0.00 in meteobridge W/m2
04:24 35.4 °F 20.8 °F 30.24 in Calm     55% 0.00 in meteobridge W/m2
04:29 35.4 °F 20.8 °F 30.24 in Calm     55% 0.00 in meteobridge W/m2
04:34 35.4 °F 20.8 °F 30.23 in Calm     55% 0.00 in meteobridge W/m2
04:39 35.4 °F 20.8 °F 30.23 in Calm     55% 0.00 in meteobridge W/m2
04:44 35.2 °F 20.7 °F 30.23 in Calm     55% 0.00 in meteobridge W/m2
04:49 35.2 °F 20.7 °F 30.23 in Calm     55% 0.00 in meteobridge W/m2
04:54 35.2 °F 20.7 °F 30.23 in Calm     55% 0.00 in meteobridge W/m2
04:59 35.2 °F 20.7 °F 30.23 in Calm     55% 0.00 in meteobridge W/m2
05:04 35.4 °F 20.8 °F 30.23 in Calm     55% 0.00 in meteobridge W/m2
05:09 35.4 °F 20.8 °F 30.23 in Calm     55% 0.00 in meteobridge W/m2
05:14 35.4 °F 20.8 °F 30.23 in Calm     55% 0.00 in meteobridge W/m2
05:18 35.4 °F 20.8 °F 30.23 in Calm     55% 0.00 in meteobridge W/m2
05:24 35.6 °F 21.0 °F 30.23 in Calm     55% 0.00 in meteobridge W/m2
05:29 35.6 °F 21.0 °F 30.23 in Calm     55% 0.00 in meteobridge W/m2
05:34 35.6 °F 21.0 °F 30.23 in Calm     55% 0.00 in meteobridge W/m2
05:39 35.6 °F 21.0 °F 30.23 in Calm     55% 0.00 in meteobridge W/m2
05:44 35.8 °F 20.8 °F 30.23 in Calm     54% 0.00 in meteobridge W/m2
05:49 35.8 °F 20.8 °F 30.23 in Calm     54% 0.00 in meteobridge W/m2
05:54 35.8 °F 20.8 °F 30.23 in Calm     54% 0.00 in meteobridge W/m2
05:59 35.8 °F 20.8 °F 30.23 in Calm     54% 0.00 in meteobridge W/m2
06:04 35.8 °F 20.8 °F 30.23 in Calm     54% 0.00 in meteobridge W/m2
06:09 35.8 °F 20.8 °F 30.23 in Calm     54% 0.00 in meteobridge W/m2
06:14 36.0 °F 21.0 °F 30.23 in Calm     54% 0.00 in meteobridge W/m2
06:19 36.0 °F 21.0 °F 30.23 in Calm     54% 0.00 in meteobridge W/m2
06:24 36.0 °F 21.0 °F 30.24 in Calm     54% 0.00 in meteobridge W/m2
06:29 36.0 °F 21.0 °F 30.24 in Calm     54% 0.00 in meteobridge W/m2
06:34 36.0 °F 21.0 °F 30.24 in Calm     54% 0.00 in meteobridge W/m2
06:39 36.1 °F 21.0 °F 30.24 in Calm     54% 0.00 in meteobridge W/m2
06:44 36.1 °F 21.0 °F 30.24 in Calm     54% 0.00 in meteobridge W/m2
06:49 36.1 °F 21.0 °F 30.24 in Calm     54% 0.00 in meteobridge W/m2
06:54 36.1 °F 21.0 °F 30.24 in Calm     54% 0.00 in meteobridge W/m2
06:59 36.0 °F 21.0 °F 30.23 in Calm     54% 0.00 in meteobridge W/m2
07:04 36.0 °F 21.0 °F 30.24 in Calm     54% 0.00 in meteobridge W/m2
07:09 36.0 °F 21.0 °F 30.24 in Calm     54% 0.00 in meteobridge W/m2
07:14 35.8 °F 20.8 °F 30.24 in Calm     54% 0.00 in meteobridge W/m2
07:19 35.8 °F 20.8 °F 30.24 in Calm     54% 0.00 in meteobridge W/m2
07:24 35.6 °F 20.7 °F 30.24 in Calm     54% 0.00 in meteobridge W/m2
07:29 35.4 °F 20.5 °F 30.24 in Calm     54% 0.00 in meteobridge W/m2
07:34 35.4 °F 20.5 °F 30.24 in Calm     54% 0.00 in meteobridge W/m2
07:39 35.4 °F 20.5 °F 30.24 in Calm     54% 0.00 in meteobridge W/m2
07:43 35.2 °F 20.3 °F 30.24 in Calm     54% 0.00 in meteobridge W/m2
07:49 35.4 °F 20.5 °F 30.24 in Calm     54% 0.00 in meteobridge W/m2
07:54 35.4 °F 20.5 °F 30.25 in Calm     54% 0.00 in meteobridge W/m2
07:59 35.4 °F 20.5 °F 30.24 in Calm     54% 0.00 in meteobridge W/m2
08:04 35.6 °F 20.7 °F 30.24 in Calm     54% 0.00 in meteobridge W/m2
08:09 35.8 °F 20.8 °F 30.24 in Calm     54% 0.00 in meteobridge W/m2
08:14 35.8 °F 20.8 °F 30.24 in Calm     54% 0.00 in meteobridge W/m2
08:19 36.0 °F 21.0 °F 30.24 in Calm     54% 0.00 in meteobridge W/m2
08:24 36.1 °F 21.0 °F 30.25 in Calm     54% 0.00 in meteobridge W/m2
08:29 36.3 °F 20.8 °F 30.25 in Calm     53% 0.00 in meteobridge W/m2
08:34 36.9 °F 21.4 °F 30.25 in Calm     53% 0.00 in meteobridge W/m2
08:39 37.2 °F 21.7 °F 30.25 in Calm     53% 0.00 in meteobridge W/m2
08:44 37.6 °F 21.6 °F 30.25 in Calm     52% 0.00 in meteobridge W/m2
08:49 37.9 °F 21.9 °F 30.25 in Calm     52% 0.00 in meteobridge W/m2
08:54 38.1 °F 22.1 °F 30.24 in Calm     52% 0.00 in meteobridge W/m2
08:59 38.5 °F 22.5 °F 30.24 in Calm     52% 0.00 in meteobridge W/m2
09:04 38.8 °F 22.6 °F 30.24 in Calm     52% 0.00 in meteobridge W/m2
09:09 39.2 °F 22.6 °F 30.24 in Calm     51% 0.00 in meteobridge W/m2
09:14 39.9 °F 23.2 °F 30.25 in Calm     51% 0.00 in meteobridge W/m2
09:19 40.6 °F 23.5 °F 30.25 in Calm     50% 0.00 in meteobridge W/m2
09:24 41.4 °F 24.1 °F 30.25 in Calm     50% 0.00 in meteobridge W/m2
09:29 42.4 °F 24.6 °F 30.25 in Calm     49% 0.00 in meteobridge W/m2
09:34 43.7 °F 25.3 °F 30.25 in Calm     48% 0.00 in meteobridge W/m2
09:39 44.8 °F 26.2 °F 30.25 in Calm     48% 0.00 in meteobridge W/m2
09:44 46.0 °F 27.0 °F 30.24 in Calm     47% 0.00 in meteobridge W/m2
09:49 46.9 °F 27.7 °F 30.24 in Calm     47% 0.00 in meteobridge W/m2
09:54 47.7 °F 27.9 °F 30.24 in Calm     46% 0.00 in meteobridge W/m2
09:59 48.0 °F 28.2 °F 30.25 in Calm     46% 0.00 in meteobridge W/m2
10:04 48.6 °F 28.2 °F 30.24 in Calm     45% 0.00 in meteobridge W/m2
10:09 49.3 °F 28.8 °F 30.24 in Calm     45% 0.00 in meteobridge W/m2
10:14 49.6 °F 28.6 °F 30.24 in Calm     44% 0.00 in meteobridge W/m2
10:19 50.4 °F 29.8 °F 30.24 in Calm     45% 0.00 in meteobridge W/m2
10:24 50.7 °F 31.3 °F 30.24 in Calm     47% 0.00 in meteobridge W/m2
10:29 52.0 °F 34.0 °F 30.23 in Calm     50% 0.00 in meteobridge W/m2
10:34 52.9 °F 38.1 °F 30.23 in Calm     57% 0.00 in meteobridge W/m2
10:39 53.2 °F 41.7 °F 30.23 in Calm   1.0 mph 65% 0.00 in meteobridge W/m2
10:44 53.6 °F 44.4 °F 30.23 in Calm   1.0 mph 71% 0.00 in meteobridge W/m2
10:49 54.0 °F 45.5 °F 30.23 in Calm     73% 0.00 in meteobridge W/m2
10:54 54.5 °F 46.8 °F 30.23 in NW 0.9 mph 6.0 mph 75% 0.00 in meteobridge W/m2
10:59 55.0 °F 47.3 °F 30.23 in Calm   4.0 mph 75% 0.00 in meteobridge W/m2
11:04 55.6 °F 47.8 °F 30.24 in Calm   1.0 mph 75% 0.00 in meteobridge W/m2
11:09 55.9 °F 47.8 °F 30.23 in Calm   1.0 mph 74% 0.00 in meteobridge W/m2
11:14 56.1 °F 48.0 °F 30.22 in Calm     74% 0.00 in meteobridge W/m2
11:19 56.7 °F 48.4 °F 30.22 in Calm     74% 0.00 in meteobridge W/m2
11:24 57.0 °F 48.4 °F 30.21 in Calm   1.0 mph 73% 0.00 in meteobridge W/m2
11:29 57.4 °F 48.4 °F 30.21 in Calm   2.0 mph 72% 0.00 in meteobridge W/m2
11:34 57.9 °F 48.2 °F 30.21 in Calm     70% 0.00 in meteobridge W/m2
11:39 58.5 °F 48.4 °F 30.21 in Calm   3.0 mph 69% 0.00 in meteobridge W/m2
11:44 58.6 °F 48.9 °F 30.20 in NW 2.0 mph 2.0 mph 70% 0.00 in meteobridge W/m2
11:49 59.5 °F 49.3 °F 30.20 in Calm   3.0 mph 69% 0.00 in meteobridge W/m2
11:54 59.5 °F 48.2 °F 30.20 in Calm   1.0 mph 66% 0.00 in meteobridge W/m2
11:59 59.5 °F 48.6 °F 30.20 in Calm   1.0 mph 67% 0.00 in meteobridge W/m2
12:03 59.5 °F 47.3 °F 30.19 in Calm   3.0 mph 64% 0.00 in meteobridge W/m2
12:09 59.5 °F 47.8 °F 30.19 in Calm   2.0 mph 65% 0.00 in meteobridge W/m2
12:14 59.7 °F 48.0 °F 30.19 in Calm   1.0 mph 65% 0.00 in meteobridge W/m2
12:19 59.9 °F 47.7 °F 30.18 in Calm     64% 0.00 in meteobridge W/m2
12:24 60.3 °F 48.0 °F 30.18 in Calm   1.0 mph 64% 0.00 in meteobridge W/m2
12:29 60.6 °F 48.0 °F 30.18 in Calm   3.0 mph 63% 0.00 in meteobridge W/m2
12:34 60.8 °F 48.2 °F 30.17 in Calm   4.0 mph 63% 0.00 in meteobridge W/m2
12:39 61.2 °F 48.9 °F 30.17 in NW 0.9 mph 3.0 mph 64% 0.00 in meteobridge W/m2
12:44 61.2 °F 48.0 °F 30.17 in Calm   1.0 mph 62% 0.00 in meteobridge W/m2
12:49 61.2 °F 48.0 °F 30.16 in WNW 2.9 mph 3.0 mph 62% 0.00 in meteobridge W/m2
12:54 61.0 °F 47.8 °F 30.16 in Calm     62% 0.00 in meteobridge W/m2
12:59 61.2 °F 49.3 °F 30.16 in Calm   1.0 mph 65% 0.00 in meteobridge W/m2
13:04 61.2 °F 48.4 °F 30.16 in Calm   3.0 mph 63% 0.00 in meteobridge W/m2
13:09 61.3 °F 48.2 °F 30.16 in Calm   2.0 mph 62% 0.00 in meteobridge W/m2
13:14 61.5 °F 48.4 °F 30.16 in Calm   4.0 mph 62% 0.00 in meteobridge W/m2
13:19 62.1 °F 49.8 °F 30.16 in Calm     64% 0.00 in meteobridge W/m2
13:24 62.2 °F 48.6 °F 30.16 in Calm   2.0 mph 61% 0.00 in meteobridge W/m2
13:29 62.2 °F 48.2 °F 30.15 in NW 2.0 mph 2.0 mph 60% 0.00 in meteobridge W/m2
13:34 62.2 °F 48.2 °F 30.16 in Calm   3.0 mph 60% 0.00 in meteobridge W/m2
13:39 62.4 °F 48.7 °F 30.15 in Calm     61% 0.00 in meteobridge W/m2
13:44 62.4 °F 48.7 °F 30.15 in Calm   3.0 mph 61% 0.00 in meteobridge W/m2
13:49 62.6 °F 48.9 °F 30.15 in Calm   1.0 mph 61% 0.00 in meteobridge W/m2
13:54 62.6 °F 48.9 °F 30.14 in Calm     61% 0.00 in meteobridge W/m2
13:59 62.8 °F 50.0 °F 30.15 in Calm     63% 0.00 in meteobridge W/m2
14:04 62.8 °F 48.7 °F 30.14 in North 0.9 mph 1.0 mph 60% 0.00 in meteobridge W/m2
14:09 63.0 °F 49.8 °F 30.14 in East 0.9 mph 2.0 mph 62% 0.00 in meteobridge W/m2
14:14 63.1 °F 48.6 °F 30.14 in East 0.9 mph 4.0 mph 59% 0.00 in meteobridge W/m2
14:19 63.5 °F 48.4 °F 30.14 in NE 2.0 mph 3.0 mph 58% 0.00 in meteobridge W/m2
14:24 63.3 °F 48.7 °F 30.14 in Calm   3.0 mph 59% 0.00 in meteobridge W/m2
14:29 63.1 °F 49.1 °F 30.13 in Calm   3.0 mph 60% 0.00 in meteobridge W/m2
14:34 63.1 °F 49.5 °F 30.13 in Calm   1.0 mph 61% 0.00 in meteobridge W/m2
14:39 63.1 °F 49.5 °F 30.13 in Calm     61% 0.00 in meteobridge W/m2
14:44 63.1 °F 49.5 °F 30.13 in Calm     61% 0.00 in meteobridge W/m2
14:49 63.1 °F 49.5 °F 30.12 in Calm     61% 0.00 in meteobridge W/m2
14:54 63.0 °F 49.3 °F 30.12 in Calm     61% 0.00 in meteobridge W/m2
14:59 62.8 °F 49.6 °F 30.13 in Calm     62% 0.00 in meteobridge W/m2
15:04 62.6 °F 50.2 °F 30.12 in Calm     64% 0.00 in meteobridge W/m2
15:09 62.2 °F 50.4 °F 30.12 in Calm   2.0 mph 65% 0.00 in meteobridge W/m2
15:14 62.2 °F 49.1 °F 30.12 in Calm   1.0 mph 62% 0.00 in meteobridge W/m2
15:19 62.2 °F 50.0 °F 30.12 in Calm     64% 0.00 in meteobridge W/m2
15:24 62.2 °F 49.5 °F 30.12 in Calm     63% 0.00 in meteobridge W/m2
15:29 62.2 °F 50.0 °F 30.12 in Calm   1.0 mph 64% 0.00 in meteobridge W/m2
15:34 62.4 °F 51.8 °F 30.12 in Calm     68% 0.00 in meteobridge W/m2
15:39 62.4 °F 51.3 °F 30.11 in Calm     67% 0.00 in meteobridge W/m2
15:44 62.2 °F 50.4 °F 30.12 in Calm     65% 0.00 in meteobridge W/m2
15:49 62.2 °F 50.0 °F 30.11 in Calm     64% 0.00 in meteobridge W/m2
15:53 62.2 °F 50.7 °F 30.12 in Calm     66% 0.00 in meteobridge W/m2
15:59 62.2 °F 50.4 °F 30.12 in Calm     65% 0.00 in meteobridge W/m2
16:04 62.1 °F 50.9 °F 30.12 in Calm     67% 0.00 in meteobridge W/m2
16:08 61.9 °F 50.4 °F 30.12 in SE 0.9 mph 1.0 mph 66% 0.00 in meteobridge W/m2
16:14 61.5 °F 49.6 °F 30.11 in Calm     65% 0.00 in meteobridge W/m2
16:19 61.3 °F 49.8 °F 30.11 in Calm     66% 0.00 in meteobridge W/m2
16:24 61.2 °F 49.6 °F 30.11 in Calm     66% 0.00 in meteobridge W/m2
16:29 61.0 °F 50.4 °F 30.12 in Calm     68% 0.00 in meteobridge W/m2
16:34 60.6 °F 50.0 °F 30.12 in Calm   3.0 mph 68% 0.00 in meteobridge W/m2
16:39 60.4 °F 49.8 °F 30.12 in Calm     68% 0.00 in meteobridge W/m2
16:44 60.1 °F 49.8 °F 30.13 in Calm     69% 0.00 in meteobridge W/m2
16:49 59.7 °F 49.5 °F 30.13 in Calm   3.0 mph 69% 0.00 in meteobridge W/m2
16:54 59.5 °F 49.8 °F 30.13 in Calm   1.0 mph 70% 0.00 in meteobridge W/m2
16:59 59.4 °F 49.1 °F 30.13 in Calm   1.0 mph 69% 0.00 in meteobridge W/m2
17:04 59.4 °F 49.6 °F 30.13 in Calm     70% 0.00 in meteobridge W/m2
17:09 59.2 °F 49.5 °F 30.13 in Calm     70% 0.00 in meteobridge W/m2
17:14 59.2 °F 49.8 °F 30.12 in Calm     71% 0.00 in meteobridge W/m2
17:19 58.8 °F 49.1 °F 30.13 in Calm     70% 0.00 in meteobridge W/m2
17:24 58.8 °F 49.1 °F 30.13 in Calm     70% 0.00 in meteobridge W/m2
17:29 58.6 °F 49.6 °F 30.12 in Calm     72% 0.00 in meteobridge W/m2
17:34 58.5 °F 49.5 °F 30.13 in Calm     72% 0.00 in meteobridge W/m2
17:39 58.3 °F 49.3 °F 30.13 in Calm     72% 0.00 in meteobridge W/m2
17:44 58.1 °F 49.1 °F 30.13 in Calm     72% 0.00 in meteobridge W/m2
17:49 57.9 °F 49.6 °F 30.14 in Calm     74% 0.00 in meteobridge W/m2
17:54 57.6 °F 49.3 °F 30.14 in Calm   1.0 mph 74% 0.01 in meteobridge W/m2
17:59 57.0 °F 48.7 °F 30.14 in Calm   2.0 mph 74% 0.01 in meteobridge W/m2
18:04 56.7 °F 47.7 °F 30.14 in Calm     72% 0.01 in meteobridge W/m2
18:09 56.1 °F 46.4 °F 30.15 in North 0.9 mph 1.0 mph 70% 0.01 in meteobridge W/m2
18:14 55.8 °F 45.3 °F 30.14 in Calm     68% 0.01 in meteobridge W/m2
18:19 55.4 °F 44.2 °F 30.14 in Calm     66% 0.01 in meteobridge W/m2
18:24 55.0 °F 43.5 °F 30.15 in Calm     65% 0.01 in meteobridge W/m2
18:29 54.7 °F 42.8 °F 30.15 in Calm     64% 0.01 in meteobridge W/m2
18:34 54.5 °F 42.1 °F 30.15 in Calm     63% 0.01 in meteobridge W/m2
18:39 54.3 °F 41.2 °F 30.14 in Calm     61% 0.02 in meteobridge W/m2
18:44 54.1 °F 40.1 °F 30.15 in Calm     59% 0.02 in meteobridge W/m2
18:49 54.1 °F 39.2 °F 30.14 in Calm     57% 0.02 in meteobridge W/m2
18:54 54.0 °F 38.7 °F 30.15 in Calm     56% 0.01 in meteobridge W/m2
18:59 54.0 °F 38.1 °F 30.15 in Calm     55% 0.01 in meteobridge W/m2
19:04 53.8 °F 37.6 °F 30.14 in Calm     54% 0.01 in meteobridge W/m2
19:09 53.6 °F 36.9 °F 30.14 in Calm     53% 0.01 in meteobridge W/m2
19:14 53.6 °F 36.3 °F 30.14 in Calm     52% 0.01 in meteobridge W/m2
19:19 53.4 °F 36.3 °F 30.14 in Calm     52% 0.01 in meteobridge W/m2
19:24 53.4 °F 36.3 °F 30.14 in Calm     52% 0.01 in meteobridge W/m2
19:29 53.2 °F 35.6 °F 30.14 in Calm     51% 0.01 in meteobridge W/m2
19:34 53.2 °F 35.6 °F 30.14 in Calm     51% 0.01 in meteobridge W/m2
19:39 53.2 °F 35.1 °F 30.14 in Calm     50% 0.00 in meteobridge W/m2
19:44 53.2 °F 35.1 °F 30.14 in Calm     50% 0.00 in meteobridge W/m2
19:49 53.1 °F 34.9 °F 30.14 in Calm     50% 0.00 in meteobridge W/m2
19:54 53.1 °F 34.9 °F 30.14 in Calm     50% 0.00 in meteobridge W/m2
19:59 53.1 °F 34.9 °F 30.14 in Calm     50% 0.00 in meteobridge W/m2
20:04 53.1 °F 34.3 °F 30.14 in Calm     49% 0.00 in meteobridge W/m2
20:09 53.1 °F 34.3 °F 30.14 in Calm     49% 0.00 in meteobridge W/m2
20:14 53.1 °F 33.8 °F 30.14 in Calm     48% 0.00 in meteobridge W/m2
20:19 53.1 °F 33.8 °F 30.14 in Calm     48% 0.00 in meteobridge W/m2
20:24 53.1 °F 33.8 °F 30.14 in Calm     48% 0.00 in meteobridge W/m2
20:29 52.9 °F 33.8 °F 30.14 in Calm     48% 0.00 in meteobridge W/m2
20:33 52.9 °F 33.8 °F 30.14 in Calm     48% 0.00 in meteobridge W/m2
20:39 52.9 °F 33.8 °F 30.14 in Calm     48% 0.00 in meteobridge W/m2
20:44 52.9 °F 33.3 °F 30.14 in Calm     47% 0.00 in meteobridge W/m2
20:49 53.1 °F 33.4 °F 30.14 in Calm     47% 0.00 in meteobridge W/m2
20:54 53.1 °F 33.4 °F 30.14 in Calm     47% 0.00 in meteobridge W/m2
20:59 53.1 °F 33.4 °F 30.14 in Calm     47% 0.00 in meteobridge W/m2
21:04 52.9 °F 33.3 °F 30.14 in Calm     47% 0.00 in meteobridge W/m2
21:09 52.9 °F 33.3 °F 30.14 in Calm     47% 0.00 in meteobridge W/m2
21:14 52.9 °F 33.3 °F 30.14 in Calm     47% 0.00 in meteobridge W/m2
21:19 52.9 °F 33.3 °F 30.14 in Calm     47% 0.01 in meteobridge W/m2
21:24 52.9 °F 32.7 °F 30.14 in Calm     46% 0.01 in meteobridge W/m2
21:29 52.9 °F 33.3 °F 30.14 in Calm     47% 0.01 in meteobridge W/m2
21:33 52.7 °F 33.1 °F 30.14 in Calm     47% 0.01 in meteobridge W/m2
21:39 52.7 °F 33.1 °F 30.14 in Calm     47% 0.01 in meteobridge W/m2
21:44 52.9 °F 32.7 °F 30.14 in Calm     46% 0.01 in meteobridge W/m2
21:49 52.9 °F 32.7 °F 30.14 in Calm     46% 0.01 in meteobridge W/m2
21:54 52.9 °F 32.7 °F 30.14 in Calm     46% 0.01 in meteobridge W/m2
21:59 52.7 °F 32.5 °F 30.13 in Calm     46% 0.01 in meteobridge W/m2
22:04 52.7 °F 32.5 °F 30.14 in Calm     46% 0.01 in meteobridge W/m2
22:08 52.7 °F 32.5 °F 30.14 in Calm     46% 0.01 in meteobridge W/m2
22:14 52.5 °F 32.4 °F 30.14 in Calm     46% 0.01 in meteobridge W/m2
22:19 52.5 °F 32.4 °F 30.14 in Calm     46% 0.00 in meteobridge W/m2
22:24 52.5 °F 32.4 °F 30.14 in Calm     46% 0.00 in meteobridge W/m2
22:29 52.5 °F 32.4 °F 30.14 in Calm     46% 0.00 in meteobridge W/m2
22:34 52.5 °F 31.8 °F 30.14 in Calm     45% 0.00 in meteobridge W/m2
22:39 52.5 °F 32.4 °F 30.13 in Calm     46% 0.00 in meteobridge W/m2
22:44 52.3 °F 32.2 °F 30.13 in Calm     46% 0.00 in meteobridge W/m2
22:49 52.3 °F 31.6 °F 30.13 in Calm     45% 0.00 in meteobridge W/m2
22:54 52.3 °F 31.6 °F 30.13 in Calm     45% 0.00 in meteobridge W/m2
22:59 52.3 °F 31.6 °F 30.13 in Calm     45% 0.00 in meteobridge W/m2
23:04 52.3 °F 31.6 °F 30.13 in Calm     45% 0.00 in meteobridge W/m2
23:09 52.3 °F 31.6 °F 30.13 in Calm     45% 0.00 in meteobridge W/m2
23:14 52.3 °F 31.6 °F 30.13 in Calm     45% 0.00 in meteobridge W/m2
23:19 52.3 °F 31.6 °F 30.13 in Calm     45% 0.00 in meteobridge W/m2
23:24 52.3 °F 31.6 °F 30.13 in Calm     45% 0.00 in meteobridge W/m2
23:29 52.3 °F 31.6 °F 30.13 in Calm     45% 0.00 in meteobridge W/m2
23:34 52.3 °F 31.6 °F 30.12 in Calm     45% 0.00 in meteobridge W/m2
23:39 52.3 °F 31.6 °F 30.12 in Calm     45% 0.00 in meteobridge W/m2
23:44 52.3 °F 31.6 °F 30.13 in Calm     45% 0.00 in meteobridge W/m2
23:49 52.3 °F 31.6 °F 30.13 in Calm     45% 0.00 in meteobridge W/m2
23:54 52.3 °F 31.6 °F 30.12 in Calm     45% 0.00 in meteobridge W/m2
23:59 52.2 °F 31.5 °F 30.13 in Calm     45% 0.00 in meteobridge W/m2
EllijayWeather
Compliments of Weather Underground - 2.5 mb